To NAV CANADA Home Page Login to a new session Search on AWWS site Feedback and Comments Disclaimer Vers la page française équivalente Tips FAQ What's new on the site To the Forecasts and Observations / NOTAM section To "File a Flight Plan" website Publications and other links Update of the User's profile FIC Telephone Numbers My Weather Data Folder Route Weather Data Regional Weather Data Local Weather Data To the Forecasts and Observations / NOTAM section
Request Generated 02/24/2017 at 03:37:55 UTC . Weather information available at that time is displayed.

METAR/TAF

FORT CHIPEWYAN/AB    (show WxCam)

METAR CYPY 240300Z AUTO 11003KT 9SM -SN OVC024 M19/M21 A3022 RMK
SLP263=
SPECI CYPY 240214Z AUTO 11003KT 6SM -SN OVC024 M17/M19 A3021 RMK
SLP259=
METAR CYPY 240200Z AUTO VRB02KT 5SM -SN OVC024 M17/M19 A3021 RMK
SLP259=
SPECI CYPY 240156Z AUTO VRB02KT 5SM -SN OVC024 M17/M19 A3021 RMK
SLP259=
METAR CYPY 240100Z AUTO VRB02KT 9SM -SN OVC024 M17/M19 A3020 RMK
SLP255=

*** REMARK        : Forecast period has ended; this was the last TAF issued
*** REMARQUE : La période de prévision est échue; ceci était le dernier TAF qui a été émis
TAF CYPY 231738Z 2318/2322 VRB03KT P6SM SCT060 BKN120 TEMPO 2318/2322
4SM -SN BKN060 BKN100
RMK FCST BASED ON AUTO OBS. NXT FCST WILL BE ISSUED AT 241245Z=
Your time UTC time
Weather data provided by Environment Canada and NAV CANADA